Time;durP1;ratioP1;P1;durP2;ratioP2;P2;SDS_P1;SDS_P2;PMS_P1;PMS_P2;Temp;Humidity;BMP_temperature;BMP_pressure;BME280_temperature;BME280_humidity;BME280_pressure;Samples;Min_cycle;Max_cycle;Signal;HPM_P1;HPM_P2
2022/03/16 00:00:04;;;;;;;22.30;16.67;;;11.60;91.00;;;;;;5108362;28;20392;-66
2022/03/16 00:02:38;;;;;;;21.35;17.27;;;11.50;90.90;;;;;;5109837;28;20424;-66
2022/03/16 00:05:04;;;;;;;22.70;17.17;;;11.50;91.00;;;;;;5108580;28;20451;-65
2022/03/16 00:07:29;;;;;;;25.70;18.00;;;11.50;91.00;;;;;;5109753;28;20489;-66
2022/03/16 00:09:55;;;;;;;25.60;17.65;;;11.50;91.10;;;;;;5107026;28;20438;-67
2022/03/16 00:12:21;;;;;;;23.17;17.90;;;11.40;91.20;;;;;;5107247;28;20491;-67
2022/03/16 00:14:47;;;;;;;25.08;17.75;;;11.40;91.20;;;;;;5107996;28;20411;-66
2022/03/16 00:17:13;;;;;;;23.15;19.27;;;11.40;91.30;;;;;;5123720;27;20419;-65
2022/03/16 00:19:40;;;;;;;26.73;18.97;;;11.30;91.50;;;;;;5110405;28;20400;-67
2022/03/16 00:22:07;;;;;;;25.03;18.87;;;11.30;91.60;;;;;;5108091;28;20745;-67
2022/03/16 00:24:33;;;;;;;23.67;18.15;;;11.20;91.90;;;;;;5108759;28;20730;-68
2022/03/16 00:26:58;;;;;;;23.27;18.57;;;11.20;91.60;;;;;;5105852;28;20419;-68
2022/03/16 00:29:24;;;;;;;25.52;19.95;;;11.20;91.80;;;;;;5108829;28;20408;-65
2022/03/16 00:31:51;;;;;;;25.60;19.83;;;11.10;92.00;;;;;;5107558;28;20404;-68
2022/03/16 00:34:17;;;;;;;28.10;21.30;;;11.20;92.00;;;;;;5124878;27;20490;-66
2022/03/16 00:36:46;;;;;;;26.63;19.67;;;11.10;92.00;;;;;;5103792;28;20530;-66
2022/03/16 00:39:12;;;;;;;25.58;20.33;;;11.10;92.00;;;;;;5106820;28;20789;-65
2022/03/16 00:41:38;;;;;;;27.30;20.30;;;11.10;92.00;;;;;;5106739;28;20406;-68
2022/03/16 00:44:06;;;;;;;24.88;19.95;;;11.10;92.00;;;;;;5110041;27;20479;-65
2022/03/16 00:46:33;;;;;;;22.92;18.98;;;11.10;92.10;;;;;;5104303;28;21007;-66
2022/03/16 00:49:01;;;;;;;26.00;19.75;;;11.00;92.10;;;;;;5108794;28;20401;-66
2022/03/16 00:51:26;;;;;;;31.48;22.00;;;11.00;92.10;;;;;;5107680;28;20415;-65
2022/03/16 00:53:53;;;;;;;28.77;20.90;;;11.00;92.40;;;;;;5107724;28;20888;-65
2022/03/16 00:56:19;;;;;;;27.17;20.85;;;10.90;92.40;;;;;;5105552;28;20419;-64
2022/03/16 00:58:44;;;;;;;27.65;21.00;;;10.90;92.30;;;;;;5106687;28;20408;-64
2022/03/16 01:01:10;;;;;;;27.80;21.80;;;10.80;92.70;;;;;;5107686;28;20417;-68
2022/03/16 01:03:40;;;;;;;28.13;21.23;;;10.80;92.40;;;;;;5108200;28;20445;-67
2022/03/16 01:06:06;;;;;;;32.03;23.37;;;10.80;92.50;;;;;;5106170;28;20416;-67
2022/03/16 01:08:32;;;;;;;35.40;24.23;;;10.70;92.50;;;;;;5107654;28;20451;-66
2022/03/16 01:10:58;;;;;;;33.13;23.98;;;10.70;92.70;;;;;;5105591;28;20931;-67
2022/03/16 01:13:24;;;;;;;31.55;23.45;;;10.60;92.70;;;;;;5105384;28;20402;-67
2022/03/16 01:15:50;;;;;;;33.57;24.00;;;10.60;92.90;;;;;;5104868;28;20999;-67
2022/03/16 01:18:15;;;;;;;31.93;23.60;;;10.60;92.90;;;;;;5109223;28;20400;-67
2022/03/16 01:20:42;;;;;;;35.08;25.02;;;10.60;92.80;;;;;;5107810;28;20471;-66
2022/03/16 01:23:07;;;;;;;33.60;24.42;;;10.50;92.80;;;;;;5108518;28;20404;-67
2022/03/16 01:25:33;;;;;;;33.97;24.60;;;10.50;92.90;;;;;;5106586;28;20415;-66
2022/03/16 01:27:59;;;;;;;34.35;23.98;;;10.50;93.20;;;;;;5103633;27;20412;-67
2022/03/16 01:30:25;;;;;;;34.20;24.60;;;10.50;92.90;;;;;;5108261;28;20449;-66
2022/03/16 01:32:50;;;;;;;34.95;24.55;;;10.40;93.10;;;;;;5105467;28;20411;-67
2022/03/16 01:35:19;;;;;;;34.55;25.27;;;10.40;93.10;;;;;;5106322;28;20866;-66
2022/03/16 01:37:45;;;;;;;34.10;25.50;;;10.40;93.30;;;;;;5107135;28;20748;-67
2022/03/16 01:40:11;;;;;;;36.30;25.85;;;10.40;93.60;;;;;;5109000;28;20408;-67
2022/03/16 01:42:38;;;;;;;36.10;25.50;;;10.40;93.50;;;;;;5104575;28;20430;-66
2022/03/16 01:45:05;;;;;;;34.17;25.85;;;10.40;93.50;;;;;;5107380;28;20423;-64
2022/03/16 01:47:31;;;;;;;37.03;25.52;;;10.40;93.50;;;;;;5104052;28;20411;-68
2022/03/16 01:49:57;;;;;;;37.80;25.60;;;10.40;93.50;;;;;;5107449;28;20903;-65
2022/03/16 01:52:26;;;;;;;35.58;24.98;;;10.40;93.50;;;;;;5104632;28;20431;-65
2022/03/16 01:54:52;;;;;;;36.00;25.10;;;10.30;93.50;;;;;;5105452;28;20437;-65
2022/03/16 01:57:19;;;;;;;36.55;25.77;;;10.30;93.60;;;;;;5104899;28;21029;-66
2022/03/16 01:59:45;;;;;;;34.30;26.05;;;10.30;93.80;;;;;;5106949;28;20396;-65
2022/03/16 02:02:11;;;;;;;35.85;26.67;;;10.30;93.80;;;;;;5090605;28;20407;-66
2022/03/16 02:04:39;;;;;;;37.55;26.00;;;10.20;93.80;;;;;;5106604;28;20392;-64
2022/03/16 02:07:05;;;;;;;39.92;27.63;;;10.20;93.90;;;;;;5105498;28;20436;-65
2022/03/16 02:09:32;;;;;;;37.15;26.33;;;10.20;93.90;;;;;;5106058;28;20485;-65
2022/03/16 02:11:58;;;;;;;37.15;27.05;;;10.20;93.80;;;;;;5106674;28;20400;-64
2022/03/16 02:14:24;;;;;;;37.47;27.52;;;10.20;93.80;;;;;;5108079;28;21241;-67
2022/03/16 02:16:51;;;;;;;37.25;27.33;;;10.10;93.90;;;;;;5104321;28;20499;-66
2022/03/16 02:19:17;;;;;;;36.88;27.10;;;10.10;94.00;;;;;;5107395;28;20396;-64
2022/03/16 02:21:46;;;;;;;36.83;26.92;;;10.10;93.90;;;;;;5105211;28;20408;-65
2022/03/16 02:24:12;;;;;;;42.30;28.90;;;10.10;94.00;;;;;;5106917;28;20408;-66
2022/03/16 02:26:39;;;;;;;41.85;29.38;;;10.10;93.90;;;;;;5106617;28;20836;-66
2022/03/16 02:29:04;;;;;;;41.08;28.98;;;10.10;94.00;;;;;;5105952;28;20398;-68
2022/03/16 02:31:30;;;;;;;42.27;29.00;;;10.00;94.00;;;;;;5105226;28;20415;-66
2022/03/16 02:33:56;;;;;;;43.97;30.17;;;10.00;94.00;;;;;;5107865;28;20408;-65
2022/03/16 02:36:21;;;;;;;43.20;31.07;;;10.00;94.00;;;;;;5103405;28;20419;-66
2022/03/16 02:38:47;;;;;;;44.38;31.23;;;10.00;94.10;;;;;;5106987;28;20927;-65
2022/03/16 02:41:13;;;;;;;46.67;31.00;;;10.00;94.30;;;;;;5107095;28;20458;-66
2022/03/16 02:43:39;;;;;;;47.08;31.73;;;9.90;94.60;;;;;;5105106;28;20388;-66
2022/03/16 02:46:05;;;;;;;46.70;33.05;;;9.90;94.60;;;;;;5105616;28;20420;-65
2022/03/16 02:48:31;;;;;;;49.17;33.92;;;9.90;94.40;;;;;;5106147;28;20411;-65
2022/03/16 02:50:57;;;;;;;49.10;33.50;;;9.90;94.40;;;;;;5106806;28;20400;-66
2022/03/16 02:53:23;;;;;;;50.05;34.97;;;9.90;94.60;;;;;;5103881;28;20427;-65
2022/03/16 02:55:49;;;;;;;51.90;34.80;;;9.80;94.70;;;;;;5106371;28;20418;-64
2022/03/16 02:58:16;;;;;;;51.58;36.38;;;9.80;94.70;;;;;;5104800;28;20415;-63
2022/03/16 03:00:42;;;;;;;50.55;35.50;;;9.90;95.00;;;;;;5104876;28;20415;-64
2022/03/16 03:03:08;;;;;;;52.95;36.45;;;9.80;95.00;;;;;;5103427;28;20498;-65
2022/03/16 03:05:34;;;;;;;51.50;36.20;;;9.90;95.10;;;;;;5104970;28;20464;-63
2022/03/16 03:08:00;;;;;;;52.67;35.78;;;9.90;95.00;;;;;;5105557;28;20451;-66
2022/03/16 03:10:26;;;;;;;52.22;36.92;;;9.80;95.00;;;;;;5106567;28;20412;-63
2022/03/16 03:12:52;;;;;;;54.35;36.88;;;9.80;95.10;;;;;;5106183;28;20465;-64
2022/03/16 03:15:18;;;;;;;54.38;37.55;;;9.80;95.10;;;;;;5107834;28;20418;-66
2022/03/16 03:17:44;;;;;;;55.27;38.30;;;9.80;95.10;;;;;;5107564;28;20408;-64
2022/03/16 03:20:11;;;;;;;58.53;38.47;;;9.80;95.30;;;;;;5111049;28;20415;-65
2022/03/16 03:22:36;;;;;;;55.00;37.35;;;9.80;95.30;;;;;;5107667;28;20415;-66
2022/03/16 03:25:03;;;;;;;55.93;37.23;;;9.80;95.30;;;;;;5111384;28;20888;-65
2022/03/16 03:27:30;;;;;;;55.95;36.95;;;9.80;95.30;;;;;;5108709;28;20919;-64
2022/03/16 03:29:56;;;;;;;56.33;37.08;;;9.80;95.20;;;;;;5107317;28;20400;-63
2022/03/16 03:32:21;;;;;;;55.07;36.80;;;9.80;95.30;;;;;;5107207;28;20418;-67
2022/03/16 03:34:50;;;;;;;51.83;36.03;;;9.70;95.40;;;;;;5109328;28;20423;-65
2022/03/16 03:37:15;;;;;;;51.93;35.90;;;9.70;95.50;;;;;;5109426;28;20399;-65
2022/03/16 03:39:41;;;;;;;50.83;34.97;;;9.70;95.50;;;;;;5109095;28;20829;-64
2022/03/16 03:42:08;;;;;;;48.35;33.75;;;9.70;95.60;;;;;;5109544;28;20924;-64
2022/03/16 03:44:37;;;;;;;52.30;34.47;;;9.70;95.70;;;;;;5109188;28;20412;-65
2022/03/16 03:47:05;;;;;;;47.63;32.47;;;9.70;95.70;;;;;;5108923;28;20753;-63
2022/03/16 03:49:35;;;;;;;49.70;33.03;;;9.70;95.80;;;;;;5110198;28;20524;-64
2022/03/16 03:52:02;;;;;;;46.80;30.90;;;9.70;95.80;;;;;;5107825;28;20412;-66
2022/03/16 03:54:27;;;;;;;45.47;31.60;;;9.70;95.60;;;;;;5109786;28;20408;-65
2022/03/16 03:56:54;;;;;;;44.53;30.57;;;9.70;95.60;;;;;;5109008;28;20472;-67
2022/03/16 03:59:20;;;;;;;45.58;30.35;;;9.70;95.50;;;;;;5110011;28;20435;-66
2022/03/16 04:01:46;;;;;;;40.80;30.02;;;9.70;95.60;;;;;;5107744;28;20892;-66
2022/03/16 04:04:12;;;;;;;41.15;29.65;;;9.70;95.50;;;;;;5109536;28;20430;-65
2022/03/16 04:06:38;;;;;;;41.92;29.55;;;9.60;95.60;;;;;;5108496;28;20451;-65
2022/03/16 04:09:04;;;;;;;44.75;30.65;;;9.60;95.60;;;;;;5109428;28;20454;-67
2022/03/16 04:11:30;;;;;;;44.80;30.63;;;9.60;95.60;;;;;;5109651;28;20443;-66
2022/03/16 04:13:56;;;;;;;42.60;30.13;;;9.60;95.70;;;;;;5106816;28;20842;-67
2022/03/16 04:16:22;;;;;;;41.67;29.97;;;9.60;95.80;;;;;;5106697;28;20416;-66
2022/03/16 04:18:47;;;;;;;46.58;30.00;;;9.60;95.80;;;;;;5105909;28;20472;-66
2022/03/16 04:21:13;;;;;;;42.27;30.50;;;9.60;95.80;;;;;;5106136;28;20472;-65
2022/03/16 04:23:39;;;;;;;42.37;30.20;;;9.60;95.80;;;;;;5109820;28;20427;-65
2022/03/16 04:26:04;;;;;;;44.13;30.50;;;9.60;96.00;;;;;;5110147;28;20431;-66
2022/03/16 04:28:30;;;;;;;43.90;31.47;;;9.60;95.80;;;;;;5108733;28;20486;-69
2022/03/16 04:30:55;;;;;;;45.05;31.27;;;9.50;95.80;;;;;;5107984;28;20415;-66
2022/03/16 04:33:21;;;;;;;44.63;31.17;;;9.50;95.90;;;;;;5110244;28;20400;-66
2022/03/16 04:35:47;;;;;;;43.70;30.73;;;9.50;95.90;;;;;;5105015;28;20408;-68
2022/03/16 04:38:15;;;;;;;45.20;30.80;;;9.50;95.90;;;;;;5109258;28;20584;-66
2022/03/16 04:40:40;;;;;;;45.38;32.42;;;9.50;95.80;;;;;;5107719;28;20435;-64
2022/03/16 04:43:06;;;;;;;47.13;31.43;;;9.50;95.90;;;;;;5106934;28;21272;-67
2022/03/16 04:45:31;;;;;;;45.17;31.67;;;9.40;95.90;;;;;;5106642;28;20428;-65
2022/03/16 04:47:57;;;;;;;45.95;31.90;;;9.40;95.90;;;;;;5109757;28;20445;-66
2022/03/16 04:50:23;;;;;;;44.80;32.10;;;9.40;95.90;;;;;;5107312;28;20405;-64
2022/03/16 04:52:49;;;;;;;44.97;30.75;;;9.40;96.00;;;;;;5108456;28;20427;-64
2022/03/16 04:55:15;;;;;;;43.53;31.33;;;9.30;95.80;;;;;;5108015;28;20419;-65
2022/03/16 04:57:41;;;;;;;45.47;31.75;;;9.30;95.90;;;;;;5107453;28;20815;-65
2022/03/16 05:00:08;;;;;;;45.17;31.23;;;9.30;95.90;;;;;;5105670;28;20402;-64
2022/03/16 05:02:34;;;;;;;42.13;28.67;;;9.30;95.90;;;;;;5109017;28;20396;-64
2022/03/16 05:05:00;;;;;;;43.03;29.40;;;9.30;96.00;;;;;;5105738;28;20909;-66
2022/03/16 05:07:26;;;;;;;41.47;27.80;;;9.30;96.00;;;;;;5107180;28;20400;-66
2022/03/16 05:09:51;;;;;;;39.10;27.27;;;9.20;96.00;;;;;;5089236;28;20404;-66
2022/03/16 05:12:17;;;;;;;37.83;26.42;;;9.20;96.10;;;;;;5108755;28;20410;-66
2022/03/16 05:14:43;;;;;;;36.60;25.23;;;9.30;96.10;;;;;;5107203;28;20396;-64
2022/03/16 05:17:08;;;;;;;34.63;24.20;;;9.30;96.00;;;;;;5125271;27;20404;-64
2022/03/16 05:19:34;;;;;;;35.15;24.27;;;9.30;96.00;;;;;;5107957;28;20957;-64
2022/03/16 05:22:00;;;;;;;33.73;23.93;;;9.20;95.90;;;;;;5105985;28;20442;-65
2022/03/16 05:24:26;;;;;;;34.97;23.15;;;9.30;95.90;;;;;;5122041;27;20486;-66
2022/03/16 05:26:52;;;;;;;32.23;23.23;;;9.20;95.80;;;;;;5108296;28;20916;-64
2022/03/16 05:29:17;;;;;;;32.70;23.13;;;9.20;95.90;;;;;;5106119;28;20411;-67
2022/03/16 05:31:43;;;;;;;32.78;23.30;;;9.20;95.80;;;;;;5107865;28;20416;-65
2022/03/16 05:34:09;;;;;;;32.03;23.00;;;9.20;95.80;;;;;;5105427;28;20745;-66
2022/03/16 05:36:35;;;;;;;32.25;22.92;;;9.20;95.80;;;;;;5097697;28;20400;-67
2022/03/16 05:39:01;;;;;;;30.67;22.67;;;9.20;95.90;;;;;;5107713;28;20813;-65
2022/03/16 05:41:27;;;;;;;31.30;23.23;;;9.20;95.80;;;;;;5106403;28;20466;-66
2022/03/16 05:43:52;;;;;;;31.33;22.47;;;9.20;95.80;;;;;;5106426;28;20419;-68
2022/03/16 05:46:18;;;;;;;30.87;22.67;;;9.20;95.80;;;;;;5105500;28;20416;-66
2022/03/16 05:48:44;;;;;;;32.55;22.55;;;9.20;95.90;;;;;;5106557;28;20416;-67
2022/03/16 05:51:10;;;;;;;31.17;22.30;;;9.10;96.00;;;;;;5108854;28;20468;-67
2022/03/16 05:53:36;;;;;;;29.73;21.77;;;9.10;96.00;;;;;;5105573;28;20891;-66
2022/03/16 05:56:01;;;;;;;33.08;22.40;;;9.10;96.00;;;;;;5107767;28;20411;-66
2022/03/16 05:58:27;;;;;;;28.77;21.57;;;9.10;96.00;;;;;;5106007;28;20427;-66
2022/03/16 06:00:53;;;;;;;32.30;23.10;;;9.10;96.30;;;;;;5105537;27;20970;-69
2022/03/16 06:03:19;;;;;;;30.90;22.67;;;9.10;96.00;;;;;;5105486;28;20400;-66
2022/03/16 06:05:44;;;;;;;31.33;22.95;;;9.10;96.20;;;;;;5106555;28;20764;-65
2022/03/16 06:08:10;;;;;;;32.17;22.60;;;9.10;96.20;;;;;;5106767;28;20499;-65
2022/03/16 06:10:36;;;;;;;30.60;22.15;;;9.10;96.10;;;;;;5108248;27;20427;-65
2022/03/16 06:13:03;;;;;;;32.97;23.27;;;9.10;96.40;;;;;;5106745;28;20415;-65
2022/03/16 06:15:31;;;;;;;33.03;23.10;;;9.10;96.10;;;;;;5106730;28;20469;-64
2022/03/16 06:18:00;;;;;;;31.60;22.50;;;9.10;96.10;;;;;;5104932;28;20439;-64
2022/03/16 06:20:28;;;;;;;30.13;22.88;;;9.10;96.00;;;;;;5108167;28;20404;-63
2022/03/16 06:22:53;;;;;;;30.83;21.80;;;9.10;96.00;;;;;;5105926;28;20407;-64
2022/03/16 06:25:19;;;;;;;32.42;22.30;;;9.10;96.10;;;;;;5106660;28;20780;-64
2022/03/16 06:27:45;;;;;;;30.77;21.70;;;9.10;96.00;;;;;;5106343;28;20408;-65
2022/03/16 06:30:11;;;;;;;32.28;22.38;;;9.10;96.00;;;;;;5107178;28;20738;-63
2022/03/16 06:32:37;;;;;;;31.00;21.70;;;9.10;96.00;;;;;;5104819;28;20415;-63
2022/03/16 06:35:05;;;;;;;29.60;21.67;;;9.20;96.00;;;;;;5104479;28;20431;-63
2022/03/16 06:37:31;;;;;;;30.52;21.67;;;9.20;96.00;;;;;;5105178;28;20416;-63
2022/03/16 06:39:56;;;;;;;28.73;21.30;;;9.20;96.00;;;;;;5106851;28;20857;-66
2022/03/16 06:42:22;;;;;;;28.63;20.33;;;9.30;95.90;;;;;;5105179;28;20400;-65
2022/03/16 06:44:48;;;;;;;29.02;20.48;;;9.30;95.80;;;;;;5104908;28;20892;-64
2022/03/16 06:47:13;;;;;;;29.13;20.70;;;9.30;96.00;;;;;;5105426;28;20399;-64
2022/03/16 06:49:39;;;;;;;26.53;20.27;;;9.30;96.00;;;;;;5112630;27;20403;-64
2022/03/16 06:52:05;;;;;;;28.90;20.15;;;9.40;95.90;;;;;;5112661;28;20445;-63
2022/03/16 06:54:31;;;;;;;26.25;19.33;;;9.40;95.90;;;;;;5111814;27;20472;-64
2022/03/16 06:56:56;;;;;;;26.17;19.23;;;9.40;95.90;;;;;;5114773;28;20404;-63
2022/03/16 06:59:22;;;;;;;25.43;19.20;;;9.40;95.90;;;;;;5113593;27;20415;-64
2022/03/16 07:01:47;;;;;;;25.98;18.52;;;9.40;95.90;;;;;;5112145;27;21404;-64
2022/03/16 07:04:13;;;;;;;26.60;18.53;;;9.40;95.90;;;;;;5111488;28;20511;-64
2022/03/16 07:06:39;;;;;;;25.23;17.63;;;9.50;95.90;;;;;;5112747;27;22124;-65
2022/03/16 07:09:04;;;;;;;22.60;17.27;;;9.40;95.80;;;;;;5111328;28;20420;-64
2022/03/16 07:11:30;;;;;;;22.93;16.57;;;9.50;95.80;;;;;;5112822;27;20408;-64
2022/03/16 07:16:41;;;;;;;23.30;15.55;;;9.50;95.70;;;;;;5109952;28;20405;-65
2022/03/16 07:19:08;;;;;;;20.70;15.35;;;9.60;95.50;;;;;;5110146;27;20403;-63
2022/03/16 07:21:34;;;;;;;23.23;15.20;;;9.60;95.50;;;;;;5110555;27;20907;-65
2022/03/16 07:23:59;;;;;;;20.55;14.82;;;9.70;95.40;;;;;;5111093;27;20888;-64
2022/03/16 07:26:25;;;;;;;21.48;15.25;;;9.70;95.40;;;;;;5110933;27;20422;-66
2022/03/16 07:28:51;;;;;;;23.27;15.90;;;9.80;95.30;;;;;;5111615;27;20879;-65
2022/03/16 07:31:17;;;;;;;23.42;15.30;;;9.80;95.20;;;;;;5112129;27;20768;-64
2022/03/16 07:33:42;;;;;;;22.30;14.93;;;9.90;95.10;;;;;;5110165;27;20526;-64
2022/03/16 07:36:08;;;;;;;22.47;15.20;;;9.90;95.10;;;;;;5111734;27;20958;-65
2022/03/16 07:38:34;;;;;;;24.27;16.40;;;10.00;95.00;;;;;;5110374;27;20412;-65
2022/03/16 07:41:02;;;;;;;25.10;16.88;;;10.10;95.00;;;;;;5113647;27;20408;-66
2022/03/16 07:43:29;;;;;;;23.60;16.38;;;10.10;95.30;;;;;;5111435;27;20419;-66
2022/03/16 07:45:56;;;;;;;26.52;16.80;;;10.20;94.80;;;;;;5111516;28;20416;-65
2022/03/16 07:48:22;;;;;;;23.52;16.90;;;10.30;94.80;;;;;;5110369;27;20983;-67
2022/03/16 07:50:50;;;;;;;23.10;16.57;;;10.40;94.50;;;;;;5112980;27;20749;-66
2022/03/16 07:53:16;;;;;;;23.25;16.65;;;10.50;94.50;;;;;;5111425;28;20806;-67
2022/03/16 07:55:42;;;;;;;22.60;16.37;;;10.60;94.40;;;;;;5110602;27;20412;-67
2022/03/16 07:58:07;;;;;;;21.48;16.00;;;10.70;94.10;;;;;;5111920;27;20416;-68
2022/03/16 08:00:33;;;;;;;21.90;15.97;;;10.80;94.10;;;;;;5104844;28;20440;-66
2022/03/16 08:03:01;;;;;;;24.15;16.00;;;10.80;93.70;;;;;;5107956;28;20437;-66
2022/03/16 08:05:27;;;;;;;22.00;15.55;;;10.90;93.50;;;;;;5111414;28;20412;-66
2022/03/16 08:07:53;;;;;;;24.05;15.38;;;11.00;93.30;;;;;;5111846;28;20726;-66
2022/03/16 08:10:20;;;;;;;20.92;14.55;;;10.70;93.80;;;;;;5112377;28;20185;-66
2022/03/16 08:12:46;;;;;;;21.55;15.48;;;10.40;94.20;;;;;;5112830;28;20196;-66
2022/03/16 08:15:13;;;;;;;21.42;14.10;;;10.30;94.60;;;;;;5111674;28;20181;-66
2022/03/16 08:17:38;;;;;;;24.00;14.13;;;10.20;94.80;;;;;;5111300;28;20170;-67
2022/03/16 08:20:04;;;;;;;23.35;14.45;;;10.20;94.90;;;;;;5112151;28;20226;-67
2022/03/16 08:22:34;;;;;;;24.58;15.07;;;10.20;94.90;;;;;;5110212;28;20637;-66
2022/03/16 08:25:06;;;;;;;24.20;14.98;;;10.20;95.00;;;;;;5112084;28;20193;-69
2022/03/16 08:27:32;;;;;;;20.23;14.30;;;10.20;94.90;;;;;;5112103;28;20189;-67
2022/03/16 08:29:58;;;;;;;20.90;14.38;;;10.30;94.90;;;;;;5110350;28;20209;-68
2022/03/16 08:32:24;;;;;;;23.10;14.68;;;10.30;94.90;;;;;;5109980;28;20192;-66
2022/03/16 08:34:50;;;;;;;20.80;13.88;;;10.40;94.90;;;;;;5111016;28;20177;-66
2022/03/16 08:37:17;;;;;;;25.27;14.95;;;10.60;95.00;;;;;;5112407;28;20561;-67
2022/03/16 08:39:44;;;;;;;20.45;13.77;;;10.70;95.00;;;;;;5111944;28;20590;-66
2022/03/16 08:42:13;;;;;;;;;;;10.90;95.30;;;;;;5111008;28;20108;-66
2022/03/16 08:44:42;;;;;;;23.90;13.43;;;11.30;95.20;;;;;;5110015;28;20187;-66
2022/03/16 08:47:08;;;;;;;20.27;13.38;;;11.70;95.20;;;;;;5110592;28;20279;-65
2022/03/16 08:49:34;;;;;;;18.60;12.95;;;12.00;94.50;;;;;;5110473;28;20209;-66
2022/03/16 08:52:01;;;;;;;21.85;12.57;;;12.20;93.90;;;;;;5111319;28;20224;-67
2022/03/16 08:54:26;;;;;;;20.17;12.85;;;12.40;93.40;;;;;;5111868;28;20638;-65
2022/03/16 08:56:52;;;;;;;14.50;11.10;;;12.60;93.00;;;;;;5111439;28;20185;-67
2022/03/16 08:59:19;;;;;;;;;;;12.90;92.60;;;;;;5110386;28;20059;-65
2022/03/16 09:01:45;;;;;;;;;;;13.10;92.10;;;;;;5109932;28;20252;-68
2022/03/16 09:04:10;;;;;;;;;;;13.40;92.50;;;;;;5109830;28;19908;-70
2022/03/16 09:06:36;;;;;;;15.95;11.13;;;13.90;91.90;;;;;;5110119;28;20179;-72
2022/03/16 09:09:02;;;;;;;15.30;10.70;;;14.70;92.10;;;;;;5110101;28;20396;-68
2022/03/16 09:11:28;;;;;;;13.75;10.52;;;17.30;73.50;;;;;;5108625;28;20387;-68
2022/03/16 09:13:53;;;;;;;12.33;9.87;;;19.70;58.80;;;;;;5109623;28;20408;-68
2022/03/16 09:16:19;;;;;;;13.47;9.70;;;21.40;52.60;;;;;;5110283;28;20493;-70
2022/03/16 09:18:47;;;;;;;12.52;9.88;;;22.80;47.30;;;;;;5109641;28;20548;-68
2022/03/16 09:21:13;;;;;;;11.88;9.35;;;23.80;44.40;;;;;;5108014;28;20400;-69
2022/03/16 09:23:38;;;;;;;12.65;9.50;;;24.80;41.80;;;;;;5110043;28;20396;-69
2022/03/16 09:26:05;;;;;;;13.85;8.93;;;25.50;39.30;;;;;;5110856;28;20224;-69
2022/03/16 09:28:32;;;;;;;12.02;9.18;;;24.50;43.30;;;;;;5111365;28;20668;-69
2022/03/16 09:30:57;;;;;;;14.23;8.63;;;24.00;45.40;;;;;;5110113;28;20177;-69
2022/03/16 09:33:23;;;;;;;14.57;8.23;;;23.80;46.10;;;;;;5110694;28;20577;-68
2022/03/16 09:35:51;;;;;;;11.63;8.73;;;23.60;46.30;;;;;;5109731;28;20189;-69
2022/03/16 09:38:20;;;;;;;10.88;8.88;;;23.60;46.70;;;;;;5109947;28;20760;-68
2022/03/16 09:40:52;;;;;;;14.30;9.37;;;25.60;38.90;;;;;;5109365;28;20404;-69
2022/03/16 09:43:19;;;;;;;11.57;8.70;;;26.90;35.90;;;;;;5109411;28;20408;-68
2022/03/16 09:45:54;;;;;;;15.43;9.18;;;27.60;35.30;;;;;;5108236;28;20416;-69
2022/03/16 09:48:23;;;;;;;12.50;8.93;;;28.20;33.80;;;;;;5109037;28;20885;-70
2022/03/16 09:50:53;;;;;;;10.87;8.53;;;29.10;32.90;;;;;;5109648;28;20411;-68
2022/03/16 09:53:20;;;;;;;12.52;9.32;;;30.00;30.90;;;;;;5108533;28;20436;-68
2022/03/16 09:55:46;;;;;;;10.47;8.70;;;30.30;30.00;;;;;;5109637;28;20495;-68
2022/03/16 09:58:12;;;;;;;9.60;8.02;;;30.30;30.10;;;;;;5109510;28;20408;-67
2022/03/16 10:00:38;;;;;;;9.80;8.30;;;30.50;29.90;;;;;;5109226;28;20452;-69
2022/03/16 10:03:04;;;;;;;10.33;7.70;;;30.80;29.40;;;;;;5108142;28;20531;-68
2022/03/16 10:05:30;;;;;;;9.77;7.70;;;30.70;29.20;;;;;;5109549;28;20792;-67
2022/03/16 10:08:02;;;;;;;10.80;7.40;;;30.80;29.00;;;;;;5109089;28;21231;-68
2022/03/16 10:13:21;;;;;;;8.55;6.82;;;31.10;29.10;;;;;;5109345;28;20722;-68
2022/03/16 10:15:51;;;;;;;9.73;6.95;;;31.10;28.40;;;;;;5107559;28;20559;-67
2022/03/16 10:18:21;;;;;;;12.38;7.10;;;30.90;28.20;;;;;;5109013;28;20426;-68
2022/03/16 10:20:47;;;;;;;13.60;7.23;;;30.90;28.40;;;;;;5107331;28;20495;-69
2022/03/16 10:23:17;;;;;;;11.68;6.70;;;30.70;28.20;;;;;;5106880;28;20778;-69
2022/03/16 10:25:59;;;;;;;15.43;7.03;;;30.80;28.10;;;;;;5106977;28;20481;-68
2022/03/16 10:28:32;;;;;;;12.73;6.82;;;31.00;28.10;;;;;;5108025;28;20868;-65
2022/03/16 10:30:57;;;;;;;11.50;6.38;;;30.80;27.90;;;;;;5106302;28;20408;-69
2022/03/16 10:33:30;;;;;;;13.23;6.97;;;30.40;28.00;;;;;;5106054;28;20457;-69
2022/03/16 10:36:07;;;;;;;13.88;7.35;;;29.90;28.30;;;;;;5089300;28;20904;-68
2022/03/16 10:38:39;;;;;;;11.57;7.20;;;29.60;29.00;;;;;;5107569;28;20400;-68
2022/03/16 10:46:53;;;;;;;11.77;7.10;;;29.80;29.20;;;;;;5107926;28;21401;-66
2022/03/16 10:49:22;;;;;;;17.13;7.15;;;29.10;29.40;;;;;;5088878;28;20408;-66
2022/03/16 10:52:05;;;;;;;13.93;6.93;;;28.50;30.20;;;;;;5107189;28;20419;-65
2022/03/16 10:54:32;;;;;;;11.50;7.57;;;27.70;30.80;;;;;;5105538;28;20853;-67
2022/03/16 10:56:59;;;;;;;13.38;7.45;;;27.00;31.80;;;;;;5105022;28;20818;-66
2022/03/16 10:59:32;;;;;;;13.93;7.55;;;26.50;33.20;;;;;;5107597;28;20422;-65
2022/03/16 11:02:06;;;;;;;12.02;7.97;;;26.10;33.70;;;;;;5108693;28;20404;-65
2022/03/16 11:04:34;;;;;;;12.43;8.23;;;25.70;33.90;;;;;;5106404;28;20416;-64
2022/03/16 11:07:00;;;;;;;9.48;7.97;;;25.50;35.00;;;;;;5108464;28;20412;-64
2022/03/16 11:09:27;;;;;;;9.55;7.80;;;25.60;35.50;;;;;;5106970;28;20418;-67
2022/03/16 11:14:40;;;;;;;12.50;7.60;;;26.60;35.40;;;;;;5107316;28;20400;-65
2022/03/16 11:17:06;;;;;;;12.38;7.78;;;27.60;32.40;;;;;;5107769;28;20440;-65
2022/03/16 11:19:34;;;;;;;10.43;7.78;;;28.10;31.30;;;;;;5106474;28;20400;-66
2022/03/16 11:22:09;;;;;;;10.77;7.90;;;28.30;31.70;;;;;;5107625;28;20480;-65
2022/03/16 11:24:40;;;;;;;11.43;8.30;;;28.30;30.50;;;;;;5106259;28;20404;-66
2022/03/16 11:27:40;;;;;;;12.48;8.15;;;27.90;31.50;;;;;;5108285;28;20416;-66
2022/03/16 11:30:33;;;;;;;12.27;8.07;;;27.60;32.40;;;;;;5105190;28;20503;-65
2022/03/16 11:33:10;;;;;;;14.33;8.50;;;26.90;32.70;;;;;;5107417;28;20464;-65
2022/03/16 11:35:45;;;;;;;11.87;8.67;;;26.30;33.60;;;;;;5108494;28;20415;-67
2022/03/16 11:38:13;;;;;;;10.90;9.20;;;25.60;35.00;;;;;;5108858;28;20408;-66
2022/03/16 11:40:42;;;;;;;13.25;9.13;;;24.90;35.90;;;;;;5110069;27;20396;-65
2022/03/16 11:43:08;;;;;;;11.80;8.98;;;24.30;37.30;;;;;;5112377;28;20967;-65
2022/03/16 11:45:37;;;;;;;15.27;9.87;;;23.90;38.40;;;;;;5110318;28;20503;-65
2022/03/16 11:48:28;;;;;;;15.10;9.77;;;23.60;38.60;;;;;;5111975;28;20858;-65
2022/03/16 11:51:09;;;;;;;11.50;9.73;;;23.40;39.70;;;;;;5111046;28;20741;-66
2022/03/16 11:56:25;;;;;;;14.40;9.43;;;23.00;40.20;;;;;;5111090;28;20225;-65
2022/03/16 11:58:52;;;;;;;16.63;9.65;;;22.10;42.30;;;;;;5111238;28;20181;-65
2022/03/16 12:01:37;;;;;;;22.25;10.45;;;21.60;42.60;;;;;;5111150;28;20187;-66
2022/03/16 12:04:16;;;;;;;12.98;9.93;;;21.10;43.70;;;;;;5110113;28;20169;-65
2022/03/16 12:07:04;;;;;;;14.93;10.15;;;20.80;44.40;;;;;;5112740;28;20265;-65
2022/03/16 12:09:54;;;;;;;12.18;9.75;;;20.60;45.10;;;;;;5110280;28;20197;-68
2022/03/16 12:15:11;;;;;;;15.88;10.80;;;20.30;45.50;;;;;;5110886;28;20675;-68
2022/03/16 12:17:43;;;;;;;19.02;10.55;;;20.10;46.10;;;;;;5111899;28;20185;-69
2022/03/16 12:20:25;;;;;;;16.58;10.75;;;20.00;46.70;;;;;;5110097;28;20177;-68
2022/03/16 12:22:51;;;;;;;18.73;10.40;;;20.00;46.80;;;;;;5109731;28;20690;-68
2022/03/16 12:25:25;;;;;;;14.43;11.48;;;19.90;47.20;;;;;;5109948;28;20412;-68
2022/03/16 12:31:03;;;;;;;14.55;11.63;;;20.60;47.30;;;;;;5109285;28;20410;-67
2022/03/16 12:33:39;;;;;;;14.52;11.07;;;20.50;47.70;;;;;;5111274;28;20388;-69
2022/03/16 12:36:11;;;;;;;16.20;11.65;;;20.60;47.90;;;;;;5108471;28;20764;-66
2022/03/16 12:38:39;;;;;;;15.82;11.82;;;20.60;47.60;;;;;;5111050;28;20420;-66
2022/03/16 12:43:56;;;;;;;19.88;11.82;;;20.60;47.90;;;;;;5107855;28;20415;-67
2022/03/16 12:46:28;;;;;;;19.02;12.25;;;20.60;49.00;;;;;;5108729;28;20416;-68
2022/03/16 12:49:01;;;;;;;16.40;12.07;;;20.60;48.40;;;;;;5109274;28;20435;-67
2022/03/16 12:51:46;;;;;;;18.40;11.70;;;20.50;48.40;;;;;;5110238;28;20876;-67
2022/03/16 12:54:21;;;;;;;17.70;11.50;;;20.50;49.10;;;;;;5108730;28;20461;-67
2022/03/16 12:56:51;;;;;;;14.93;11.30;;;20.50;48.80;;;;;;5108888;28;20415;-68
2022/03/16 12:59:25;;;;;;;15.70;11.80;;;20.40;49.40;;;;;;5108915;27;20779;-66